createdAt,value
2023-09-23T00:00:21.410Z,994.68
2023-09-23T00:01:21.440Z,994.69
2023-09-23T00:02:21.415Z,994.70
2023-09-23T00:03:21.445Z,994.72
2023-09-23T00:04:21.490Z,994.75
2023-09-23T00:05:21.421Z,994.73
2023-09-23T00:06:21.350Z,994.72
2023-09-23T00:07:21.318Z,994.76
2023-09-23T00:08:21.299Z,994.76
2023-09-23T00:09:21.300Z,994.71
2023-09-23T00:10:21.283Z,994.76
2023-09-23T00:11:21.283Z,994.74
2023-09-23T00:12:21.250Z,994.75
2023-09-23T00:13:21.233Z,994.71
2023-09-23T00:14:21.222Z,994.76
2023-09-23T00:15:21.222Z,994.75
2023-09-23T00:16:21.244Z,994.74
2023-09-23T00:17:21.242Z,994.78
2023-09-23T00:18:21.168Z,994.77
2023-09-23T00:19:21.170Z,994.77
2023-09-23T00:20:21.165Z,994.80
2023-09-23T00:21:21.124Z,994.84
2023-09-23T00:22:21.113Z,994.85
2023-09-23T00:23:21.094Z,994.81
2023-09-23T00:24:21.093Z,994.82
2023-09-23T00:25:21.090Z,994.80
2023-09-23T00:26:21.085Z,994.81
2023-09-23T00:27:21.044Z,994.86
2023-09-23T00:28:21.028Z,994.86
2023-09-23T00:29:21.075Z,994.84
2023-09-23T00:30:21.003Z,994.84
2023-09-23T00:31:21.040Z,994.88
2023-09-23T00:32:21.003Z,994.90
2023-09-23T00:33:20.961Z,994.93
2023-09-23T00:34:20.959Z,994.95
2023-09-23T00:35:20.999Z,994.95
2023-09-23T00:36:20.916Z,994.98
2023-09-23T00:37:20.913Z,995.00
2023-09-23T00:38:20.905Z,994.99
2023-09-23T00:39:20.900Z,995.02
2023-09-23T00:40:20.864Z,995.03
2023-09-23T00:41:20.881Z,995.01
2023-09-23T00:42:20.884Z,994.99
2023-09-23T00:43:20.865Z,995.01
2023-09-23T00:44:20.838Z,995.02
2023-09-23T00:45:20.824Z,995.04
2023-09-23T00:46:20.808Z,995.08
2023-09-23T00:47:20.948Z,995.08
2023-09-23T00:48:20.808Z,995.07
2023-09-23T00:49:20.775Z,995.06
2023-09-23T00:50:20.841Z,995.09
2023-09-23T00:51:20.786Z,995.10
2023-09-23T00:52:20.793Z,995.13
2023-09-23T00:53:20.741Z,995.12
2023-09-23T00:54:20.685Z,995.15
2023-09-23T00:55:20.681Z,995.20
2023-09-23T00:56:20.649Z,995.20
2023-09-23T00:57:20.658Z,995.21
2023-09-23T00:58:20.639Z,995.19
2023-09-23T00:59:20.660Z,995.18
2023-09-23T01:00:20.620Z,995.19
2023-09-23T01:01:20.646Z,995.21
2023-09-23T01:02:20.627Z,995.21
2023-09-23T01:03:20.642Z,995.19
2023-09-23T01:04:20.542Z,995.21
2023-09-23T01:05:20.574Z,995.20
2023-09-23T01:06:20.542Z,995.15
2023-09-23T01:07:20.523Z,995.19
2023-09-23T01:08:20.532Z,995.21
2023-09-23T01:09:20.476Z,995.20
2023-09-23T01:10:20.474Z,995.16
2023-09-23T01:11:20.532Z,995.19
2023-09-23T01:12:20.465Z,995.17
2023-09-23T01:13:20.435Z,995.23
2023-09-23T01:14:20.451Z,995.23
2023-09-23T01:15:20.396Z,995.24
2023-09-23T01:16:20.572Z,995.24
2023-09-23T01:17:20.424Z,995.26
2023-09-23T01:18:20.366Z,995.29
2023-09-23T01:19:20.347Z,995.29
2023-09-23T01:20:20.344Z,995.31
2023-09-23T01:21:20.339Z,995.32
2023-09-23T01:22:20.848Z,995.36
2023-09-23T01:23:20.295Z,995.39
2023-09-23T01:24:20.284Z,995.36
2023-09-23T01:25:20.273Z,995.34
2023-09-23T01:26:20.275Z,995.37
2023-09-23T01:27:20.246Z,995.37
2023-09-23T01:28:20.226Z,995.39
2023-09-23T01:29:20.263Z,995.38
2023-09-23T01:30:20.247Z,995.36
2023-09-23T01:31:20.250Z,995.39
2023-09-23T01:32:20.204Z,995.36
2023-09-23T01:33:20.308Z,995.37
2023-09-23T01:34:20.149Z,995.35
2023-09-23T01:35:20.180Z,995.38
2023-09-23T01:36:20.120Z,995.39
2023-09-23T01:37:20.109Z,995.39
2023-09-23T01:38:20.139Z,995.43
2023-09-23T01:39:20.087Z,995.41
2023-09-23T01:40:20.091Z,995.42
2023-09-23T01:41:20.107Z,995.41
2023-09-23T01:42:20.043Z,995.38
2023-09-23T01:43:20.039Z,995.38
2023-09-23T01:44:20.072Z,995.38
2023-09-23T01:45:20.026Z,995.36
2023-09-23T01:46:20.026Z,995.34
2023-09-23T01:47:20.125Z,995.36
2023-09-23T01:48:19.993Z,995.38
2023-09-23T01:49:19.978Z,995.39
2023-09-23T01:50:20.153Z,995.37
2023-09-23T01:51:19.928Z,995.39
2023-09-23T01:52:19.909Z,995.43
2023-09-23T01:53:19.929Z,995.41
2023-09-23T01:54:19.902Z,995.40
2023-09-23T01:55:19.894Z,995.41
2023-09-23T01:56:19.900Z,995.41
2023-09-23T01:57:19.849Z,995.42
2023-09-23T01:58:19.824Z,995.46
2023-09-23T01:59:19.941Z,995.50
2023-09-23T02:00:19.817Z,995.53
2023-09-23T02:01:19.817Z,995.50
2023-09-23T02:02:19.882Z,995.51
2023-09-23T02:03:19.859Z,995.54
2023-09-23T02:04:19.761Z,995.58
2023-09-23T02:05:19.986Z,995.59
2023-09-23T02:06:19.725Z,995.59
2023-09-23T02:07:19.734Z,995.62
2023-09-23T02:08:19.794Z,995.62
2023-09-23T02:09:19.690Z,995.65
2023-09-23T02:10:19.687Z,995.66
2023-09-23T02:11:19.700Z,995.64
2023-09-23T02:12:19.650Z,995.67
2023-09-23T02:13:19.647Z,995.72
2023-09-23T02:14:19.665Z,995.75
2023-09-23T02:15:19.637Z,995.75
2023-09-23T02:16:19.628Z,995.75
2023-09-23T02:17:19.728Z,995.74
2023-09-23T02:18:19.631Z,995.78
2023-09-23T02:19:19.560Z,995.74
2023-09-23T02:20:19.649Z,995.78
2023-09-23T02:21:19.527Z,995.81
2023-09-23T02:22:19.545Z,995.81
2023-09-23T02:23:19.522Z,995.80
2023-09-23T02:24:19.483Z,995.83
2023-09-23T02:25:19.486Z,995.82
2023-09-23T02:26:19.462Z,995.84
2023-09-23T02:27:19.497Z,995.84
2023-09-23T02:28:19.428Z,995.87
2023-09-23T02:29:19.463Z,995.86
2023-09-23T02:30:19.414Z,995.84
2023-09-23T02:31:19.480Z,995.83
2023-09-23T02:32:19.432Z,995.82
2023-09-23T02:33:19.370Z,995.82
2023-09-23T02:34:19.404Z,995.83
2023-09-23T02:35:19.398Z,995.83
2023-09-23T02:36:19.352Z,995.81
2023-09-23T02:37:19.358Z,995.83
2023-09-23T02:38:19.352Z,995.86
2023-09-23T02:39:19.293Z,995.84
2023-09-23T02:40:19.803Z,995.87
2023-09-23T02:41:19.337Z,995.87
2023-09-23T02:42:19.250Z,995.88
2023-09-23T02:43:19.235Z,995.96
2023-09-23T02:44:19.276Z,995.97
2023-09-23T02:45:19.219Z,995.94
2023-09-23T02:46:19.241Z,995.96
2023-09-23T02:47:19.234Z,995.97
2023-09-23T02:48:19.214Z,995.99
2023-09-23T02:49:19.180Z,995.99
2023-09-23T02:50:19.330Z,996.04
2023-09-23T02:51:19.146Z,996.04
2023-09-23T02:52:19.117Z,996.05
2023-09-23T02:53:19.146Z,996.06
2023-09-23T02:54:19.153Z,996.07
2023-09-23T02:55:19.092Z,996.10
2023-09-23T02:56:19.102Z,996.08
2023-09-23T02:57:19.057Z,996.06
2023-09-23T02:58:19.038Z,996.06
2023-09-23T02:59:19.047Z,996.06
2023-09-23T03:00:19.596Z,996.06
2023-09-23T03:01:19.013Z,996.06
2023-09-23T03:02:19.048Z,996.08
2023-09-23T03:03:19.064Z,996.12
2023-09-23T03:04:19.010Z,996.08
2023-09-23T03:05:19.097Z,996.11
2023-09-23T03:06:18.934Z,996.15
2023-09-23T03:07:18.920Z,996.13
2023-09-23T03:08:18.945Z,996.17
2023-09-23T03:09:18.900Z,996.17
2023-09-23T03:10:18.893Z,996.19
2023-09-23T03:11:18.910Z,996.22
2023-09-23T03:12:18.861Z,996.23
2023-09-23T03:13:18.842Z,996.26
2023-09-23T03:14:18.896Z,996.32
2023-09-23T03:15:18.831Z,996.32
2023-09-23T03:16:18.836Z,996.37
2023-09-23T03:17:18.814Z,996.33
2023-09-23T03:18:18.800Z,996.32
2023-09-23T03:19:18.774Z,996.38
2023-09-23T03:20:18.778Z,996.39
2023-09-23T03:21:18.727Z,996.39
2023-09-23T03:22:18.718Z,996.41
2023-09-23T03:23:18.741Z,996.41
2023-09-23T03:24:18.697Z,996.40
2023-09-23T03:25:18.675Z,996.42
2023-09-23T03:26:18.678Z,996.46
2023-09-23T03:27:18.637Z,996.44
2023-09-23T03:28:18.647Z,996.44
2023-09-23T03:29:18.657Z,996.48
2023-09-23T03:30:18.596Z,996.48
2023-09-23T03:31:18.587Z,996.52
2023-09-23T03:32:18.672Z,996.47
2023-09-23T03:33:18.638Z,996.49
2023-09-23T03:34:18.556Z,996.51
2023-09-23T03:35:18.601Z,996.51
2023-09-23T03:36:18.524Z,996.49
2023-09-23T03:37:18.506Z,996.48
2023-09-23T03:38:18.534Z,996.52
2023-09-23T03:39:18.479Z,996.53
2023-09-23T03:40:18.459Z,996.52
2023-09-23T03:41:18.520Z,996.50
2023-09-23T03:42:18.438Z,996.53
2023-09-23T03:43:18.435Z,996.54
2023-09-23T03:44:18.501Z,996.54
2023-09-23T03:45:18.392Z,996.59
2023-09-23T03:46:18.548Z,996.61
2023-09-23T03:47:18.418Z,996.65
2023-09-23T03:48:18.375Z,996.62
2023-09-23T03:49:18.349Z,996.63
2023-09-23T03:50:18.351Z,996.66
2023-09-23T03:51:18.302Z,996.65
2023-09-23T03:52:18.306Z,996.62
2023-09-23T03:53:18.373Z,996.68
2023-09-23T03:54:18.262Z,996.68
2023-09-23T03:55:18.255Z,996.76
2023-09-23T03:56:18.246Z,996.77
2023-09-23T03:57:18.247Z,996.80
2023-09-23T03:58:18.217Z,996.79
2023-09-23T03:59:18.234Z,996.79
2023-09-23T04:00:18.189Z,996.83
2023-09-23T04:01:18.191Z,996.80
2023-09-23T04:02:18.210Z,996.83
2023-09-23T04:03:18.233Z,996.86
2023-09-23T04:04:18.139Z,996.84
2023-09-23T04:05:18.234Z,996.87
2023-09-23T04:06:18.129Z,996.82
2023-09-23T04:07:18.118Z,996.82
2023-09-23T04:08:18.873Z,996.86
2023-09-23T04:09:18.073Z,996.88
2023-09-23T04:10:18.050Z,996.95
2023-09-23T04:11:18.093Z,996.96
2023-09-23T04:12:18.062Z,996.95
2023-09-23T04:13:18.019Z,996.99
2023-09-23T04:14:18.033Z,996.99
2023-09-23T04:15:17.986Z,997.03
2023-09-23T04:16:18.060Z,997.06
2023-09-23T04:17:17.994Z,997.05
2023-09-23T04:18:17.940Z,997.05
2023-09-23T04:19:17.936Z,997.06
2023-09-23T04:20:17.975Z,997.08
2023-09-23T04:21:17.929Z,997.06
2023-09-23T04:22:17.890Z,997.09
2023-09-23T04:23:17.913Z,997.08
2023-09-23T04:24:17.862Z,997.08
2023-09-23T04:25:17.870Z,997.08
2023-09-23T04:26:17.877Z,997.09
2023-09-23T04:27:17.832Z,997.10
2023-09-23T04:28:17.811Z,997.10
2023-09-23T04:29:17.855Z,997.12
2023-09-23T04:30:17.802Z,997.13
2023-09-23T04:31:17.778Z,997.14
2023-09-23T04:32:17.874Z,997.13
2023-09-23T04:33:17.860Z,997.11
2023-09-23T04:34:17.731Z,997.14
2023-09-23T04:35:17.830Z,997.16
2023-09-23T04:36:17.712Z,997.14
2023-09-23T04:37:17.696Z,997.17
2023-09-23T04:38:17.732Z,997.15
2023-09-23T04:39:17.679Z,997.18
2023-09-23T04:40:17.687Z,997.18
2023-09-23T04:41:17.691Z,997.17
2023-09-23T04:42:17.631Z,997.19
2023-09-23T04:43:17.614Z,997.17
2023-09-23T04:44:17.678Z,997.14
2023-09-23T04:45:17.588Z,997.19
2023-09-23T04:46:17.602Z,997.21
2023-09-23T04:47:17.605Z,997.20
2023-09-23T04:48:17.644Z,997.24
2023-09-23T04:49:17.557Z,997.29
2023-09-23T04:50:17.526Z,997.30
2023-09-23T04:51:17.514Z,997.32
2023-09-23T04:52:17.501Z,997.35
2023-09-23T04:53:17.537Z,997.34
2023-09-23T04:54:17.476Z,997.35
2023-09-23T04:55:17.452Z,997.36
2023-09-23T04:56:17.496Z,997.39
2023-09-23T04:57:17.421Z,997.35
2023-09-23T04:58:17.441Z,997.41
2023-09-23T04:59:17.421Z,997.40
2023-09-23T05:00:17.373Z,997.46
2023-09-23T05:01:17.372Z,997.43
2023-09-23T05:02:17.373Z,997.47
2023-09-23T05:03:17.432Z,997.47
2023-09-23T05:04:17.430Z,997.48
2023-09-23T05:05:17.457Z,997.51
2023-09-23T05:06:17.304Z,997.49
2023-09-23T05:07:17.287Z,997.51
2023-09-23T05:08:17.308Z,997.52
2023-09-23T05:09:17.262Z,997.53
2023-09-23T05:10:17.244Z,997.53
2023-09-23T05:11:17.303Z,997.56
2023-09-23T05:12:17.258Z,997.57
2023-09-23T05:13:17.232Z,997.58
2023-09-23T05:14:17.224Z,997.61
2023-09-23T05:15:17.185Z,997.60
2023-09-23T05:16:17.194Z,997.64
2023-09-23T05:17:17.216Z,997.67
2023-09-23T05:18:17.163Z,997.69
2023-09-23T05:19:17.179Z,997.66
2023-09-23T05:20:17.144Z,997.70
2023-09-23T05:21:17.106Z,997.70
2023-09-23T05:22:17.133Z,997.70
2023-09-23T05:23:17.109Z,997.69
2023-09-23T05:24:17.066Z,997.70
2023-09-23T05:25:17.072Z,997.71
2023-09-23T05:26:17.091Z,997.75
2023-09-23T05:27:17.038Z,997.79
2023-09-23T05:28:17.033Z,997.76
2023-09-23T05:29:17.106Z,997.81
2023-09-23T05:30:16.984Z,997.82
2023-09-23T05:31:17.011Z,997.83
2023-09-23T05:32:17.060Z,997.86
2023-09-23T05:33:16.945Z,997.90
2023-09-23T05:34:16.941Z,997.88
2023-09-23T05:35:16.969Z,997.91
2023-09-23T05:36:16.928Z,997.89
2023-09-23T05:37:16.904Z,997.93
2023-09-23T05:38:16.930Z,997.94
2023-09-23T05:39:16.861Z,997.91
2023-09-23T05:40:16.860Z,997.94
2023-09-23T05:41:16.858Z,997.97
2023-09-23T05:42:16.978Z,997.99
2023-09-23T05:43:16.803Z,998.02
2023-09-23T05:44:16.879Z,998.07
2023-09-23T05:45:16.778Z,998.06
2023-09-23T05:46:16.817Z,998.11
2023-09-23T05:47:16.831Z,998.11
2023-09-23T05:48:16.806Z,998.08
2023-09-23T05:49:16.770Z,998.06
2023-09-23T05:50:16.809Z,998.10
2023-09-23T05:51:16.713Z,998.10
2023-09-23T05:52:16.691Z,998.12
2023-09-23T05:53:16.684Z,998.10
2023-09-23T05:54:16.662Z,998.12
2023-09-23T05:55:16.646Z,998.16
2023-09-23T05:56:16.664Z,998.27
2023-09-23T05:57:16.633Z,998.29
2023-09-23T05:58:16.620Z,998.25
2023-09-23T05:59:16.658Z,998.30
2023-09-23T06:00:16.757Z,998.35
2023-09-23T06:01:16.618Z,998.37
2023-09-23T06:02:16.624Z,998.40
2023-09-23T06:03:16.634Z,998.41
2023-09-23T06:04:16.520Z,998.41
2023-09-23T06:05:17.206Z,998.43
2023-09-23T06:06:16.500Z,998.51
2023-09-23T06:07:16.482Z,998.54
2023-09-23T06:08:16.514Z,998.58
2023-09-23T06:09:16.460Z,998.60
2023-09-23T06:10:16.454Z,998.64
2023-09-23T06:11:16.466Z,998.66
2023-09-23T06:12:16.421Z,998.68
2023-09-23T06:13:16.412Z,998.67
2023-09-23T06:14:16.438Z,998.71
2023-09-23T06:15:16.405Z,998.73
2023-09-23T06:16:16.474Z,998.71
2023-09-23T06:17:16.447Z,998.72
2023-09-23T06:18:16.375Z,998.73
2023-09-23T06:19:16.334Z,998.77
2023-09-23T06:20:16.364Z,998.76
2023-09-23T06:21:16.294Z,998.76
2023-09-23T06:22:16.295Z,998.74
2023-09-23T06:23:16.337Z,998.81
2023-09-23T06:24:16.272Z,998.77
2023-09-23T06:25:16.304Z,998.82
2023-09-23T06:26:16.288Z,998.80
2023-09-23T06:27:16.216Z,998.83
2023-09-23T06:28:16.221Z,998.83
2023-09-23T06:29:16.197Z,998.84
2023-09-23T06:30:16.190Z,998.86
2023-09-23T06:31:16.205Z,998.84
2023-09-23T06:32:16.188Z,998.86
2023-09-23T06:33:16.172Z,998.80
2023-09-23T06:34:16.127Z,998.80
2023-09-23T06:35:16.156Z,998.85
2023-09-23T06:36:16.235Z,998.85
2023-09-23T06:37:16.129Z,998.86
2023-09-23T06:38:16.120Z,998.85
2023-09-23T06:39:16.049Z,998.89
2023-09-23T06:40:16.105Z,998.86
2023-09-23T06:41:16.110Z,998.89
2023-09-23T06:42:16.020Z,998.91
2023-09-23T06:43:16.008Z,998.96
2023-09-23T06:44:16.048Z,998.91
2023-09-23T06:45:16.036Z,998.92
2023-09-23T06:46:15.993Z,999.00
2023-09-23T06:47:15.955Z,999.02
2023-09-23T06:48:15.971Z,998.99
2023-09-23T06:49:15.913Z,999.04
2023-09-23T06:50:15.973Z,999.02
2023-09-23T06:51:15.887Z,999.02
2023-09-23T06:52:15.900Z,999.07
2023-09-23T06:53:15.914Z,999.08
2023-09-23T06:54:15.865Z,999.09
2023-09-23T06:55:15.842Z,999.09
2023-09-23T06:56:15.894Z,999.09
2023-09-23T06:57:15.828Z,999.10
2023-09-23T06:58:15.804Z,999.13
2023-09-23T06:59:15.815Z,999.12
2023-09-23T07:00:15.781Z,999.11
2023-09-23T07:01:15.846Z,999.15
2023-09-23T07:02:15.845Z,999.13
2023-09-23T07:03:15.882Z,999.11
2023-09-23T07:04:15.840Z,999.14
2023-09-23T07:05:15.770Z,999.14
2023-09-23T07:06:15.700Z,999.13
2023-09-23T07:07:15.712Z,999.18
2023-09-23T07:08:15.694Z,999.15
2023-09-23T07:09:15.665Z,999.18
2023-09-23T07:10:15.662Z,999.17
2023-09-23T07:11:15.680Z,999.16
2023-09-23T07:12:15.646Z,999.15
2023-09-23T07:13:15.613Z,999.11
2023-09-23T07:14:15.642Z,999.16
2023-09-23T07:15:15.572Z,999.17
2023-09-23T07:16:15.761Z,999.12
2023-09-23T07:17:15.614Z,999.16
2023-09-23T07:18:15.651Z,999.19
2023-09-23T07:19:15.527Z,999.22
2023-09-23T07:20:15.575Z,999.23
2023-09-23T07:21:15.517Z,999.27
2023-09-23T07:22:15.484Z,999.27
2023-09-23T07:23:15.549Z,999.30
2023-09-23T07:24:15.470Z,999.37
2023-09-23T07:25:15.459Z,999.37
2023-09-23T07:26:15.480Z,999.40
2023-09-23T07:27:15.420Z,999.40
2023-09-23T07:28:15.411Z,999.41
2023-09-23T07:29:15.419Z,999.39
2023-09-23T07:30:16.291Z,999.42
2023-09-23T07:31:15.382Z,999.43
2023-09-23T07:32:15.403Z,999.48
2023-09-23T07:33:15.399Z,999.51
2023-09-23T07:34:15.387Z,999.53
2023-09-23T07:35:15.452Z,999.57
2023-09-23T07:36:15.324Z,999.59
2023-09-23T07:37:15.299Z,999.58
2023-09-23T07:38:15.312Z,999.62
2023-09-23T07:39:15.273Z,999.64
2023-09-23T07:40:15.297Z,999.65
2023-09-23T07:41:15.260Z,999.69
2023-09-23T07:42:15.317Z,999.73
2023-09-23T07:43:15.215Z,999.77
2023-09-23T07:44:15.252Z,999.76
2023-09-23T07:45:15.176Z,999.76
2023-09-23T07:46:15.239Z,999.80
2023-09-23T07:47:15.313Z,999.83
2023-09-23T07:48:15.193Z,999.85
2023-09-23T07:49:15.141Z,999.90
2023-09-23T07:50:15.256Z,999.91
2023-09-23T07:51:15.096Z,999.89
2023-09-23T07:52:15.090Z,999.91
2023-09-23T07:53:15.146Z,999.96
2023-09-23T07:54:15.054Z,999.94
2023-09-23T07:55:15.327Z,999.99
2023-09-23T07:56:15.078Z,999.95
2023-09-23T07:57:15.000Z,1000.00
2023-09-23T07:58:15.015Z,1000.06
2023-09-23T07:59:15.018Z,1000.05
2023-09-23T08:00:14.969Z,1000.06
2023-09-23T08:01:14.969Z,1000.12
2023-09-23T08:02:15.048Z,1000.12
2023-09-23T08:03:15.053Z,1000.11
2023-09-23T08:04:14.936Z,1000.15
2023-09-23T08:05:15.018Z,1000.17
2023-09-23T08:06:14.925Z,1000.18
2023-09-23T08:07:14.872Z,1000.20
2023-09-23T08:08:14.914Z,1000.23
2023-09-23T08:09:14.857Z,1000.24
2023-09-23T08:10:14.832Z,1000.23
2023-09-23T08:11:14.845Z,1000.21
2023-09-23T08:12:14.826Z,1000.20
2023-09-23T08:13:14.823Z,1000.25
2023-09-23T08:14:14.918Z,1000.24
2023-09-23T08:15:14.772Z,1000.27
2023-09-23T08:16:14.851Z,1000.27
2023-09-23T08:17:14.825Z,1000.26
2023-09-23T08:18:14.823Z,1000.30
2023-09-23T08:19:14.719Z,1000.28
2023-09-23T08:20:14.745Z,1000.34
2023-09-23T08:21:14.708Z,1000.34
2023-09-23T08:22:14.700Z,1000.33
2023-09-23T08:23:14.688Z,1000.35
2023-09-23T08:24:14.653Z,1000.40
2023-09-23T08:25:14.636Z,1000.40
2023-09-23T08:26:14.792Z,1000.39
2023-09-23T08:27:14.624Z,1000.41
2023-09-23T08:28:14.623Z,1000.36
2023-09-23T08:29:14.615Z,1000.35
2023-09-23T08:30:14.573Z,1000.37
2023-09-23T08:31:17.596Z,1000.31
2023-09-23T08:32:14.599Z,1000.36
2023-09-23T08:33:14.599Z,1000.37
2023-09-23T08:34:14.523Z,1000.36
2023-09-23T08:35:14.594Z,1000.36
2023-09-23T08:36:14.566Z,1000.38
2023-09-23T08:37:14.524Z,1000.43
2023-09-23T08:38:14.520Z,1000.43
2023-09-23T08:39:14.476Z,1000.42
2023-09-23T08:40:14.472Z,1000.42
2023-09-23T08:41:14.503Z,1000.43
2023-09-23T08:42:14.426Z,1000.43
2023-09-23T08:43:14.461Z,1000.49
2023-09-23T08:44:14.533Z,1000.45
2023-09-23T08:45:14.397Z,1000.44
2023-09-23T08:46:14.454Z,1000.44
2023-09-23T08:47:14.385Z,1000.50
2023-09-23T08:48:14.512Z,1000.52
2023-09-23T08:49:14.324Z,1000.49
2023-09-23T08:50:14.416Z,1000.48
2023-09-23T08:51:14.287Z,1000.51
2023-09-23T08:52:14.302Z,1000.53
2023-09-23T08:53:14.339Z,1000.53
2023-09-23T08:54:14.283Z,1000.54
2023-09-23T08:55:14.286Z,1000.55
2023-09-23T08:56:14.277Z,1000.59
2023-09-23T08:57:14.267Z,1000.56
2023-09-23T08:58:14.205Z,1000.57
2023-09-23T08:59:14.238Z,1000.57
2023-09-23T09:00:14.190Z,1000.58
2023-09-23T09:01:14.241Z,1000.60
2023-09-23T09:02:14.249Z,1000.61
2023-09-23T09:03:14.222Z,1000.62
2023-09-23T09:04:14.142Z,1000.59
2023-09-23T09:05:14.187Z,1000.65
2023-09-23T09:06:14.148Z,1000.57
2023-09-23T09:07:14.097Z,1000.60
2023-09-23T09:08:14.146Z,1000.55
2023-09-23T09:09:14.109Z,1000.55
2023-09-23T09:10:14.098Z,1000.57
2023-09-23T09:11:14.123Z,1000.54
2023-09-23T09:12:14.020Z,1000.54
2023-09-23T09:13:14.014Z,1000.53
2023-09-23T09:14:14.046Z,1000.48
2023-09-23T09:15:13.969Z,1000.48
2023-09-23T09:16:14.002Z,1000.48
2023-09-23T09:17:14.048Z,1000.46
2023-09-23T09:18:14.004Z,1000.50
2023-09-23T09:19:13.977Z,1000.47
2023-09-23T09:20:13.949Z,1000.54
2023-09-23T09:21:13.890Z,1000.59
2023-09-23T09:22:13.878Z,1000.49
2023-09-23T09:23:13.918Z,1000.58
2023-09-23T09:24:13.850Z,1000.52
2023-09-23T09:25:13.830Z,1000.51
2023-09-23T09:26:13.885Z,1000.53
2023-09-23T09:27:13.829Z,1000.53
2023-09-23T09:28:13.814Z,1000.53
2023-09-23T09:29:13.927Z,1000.52
2023-09-23T09:30:14.662Z,1000.53
2023-09-23T09:31:13.794Z,1000.56
2023-09-23T09:32:13.773Z,1000.51
2023-09-23T09:33:13.806Z,1000.49
2023-09-23T09:34:13.717Z,1000.51
2023-09-23T09:35:13.733Z,1000.50
2023-09-23T09:36:13.683Z,1000.54
2023-09-23T09:37:13.683Z,1000.56
2023-09-23T09:38:17.869Z,1000.52
2023-09-23T09:39:13.645Z,1000.59
2023-09-23T09:40:13.632Z,1000.56
2023-09-23T09:41:13.649Z,1000.60
2023-09-23T09:42:13.640Z,1000.65
2023-09-23T09:43:13.598Z,1000.65
2023-09-23T09:44:13.619Z,1000.66
2023-09-23T09:45:13.569Z,1000.66
2023-09-23T09:46:13.578Z,1000.67
2023-09-23T09:47:13.566Z,1000.69
2023-09-23T09:48:13.621Z,1000.69
2023-09-23T09:49:13.508Z,1000.70
2023-09-23T09:50:13.589Z,1000.68
2023-09-23T09:51:13.516Z,1000.71
2023-09-23T09:52:13.487Z,1000.77
2023-09-23T09:53:13.610Z,1000.72
2023-09-23T09:54:13.439Z,1000.69
2023-09-23T09:55:13.442Z,1000.71
2023-09-23T09:56:13.465Z,1000.71
2023-09-23T09:57:13.402Z,1000.68
2023-09-23T09:58:13.400Z,1000.71
2023-09-23T09:59:13.401Z,1000.73
2023-09-23T10:00:13.361Z,1000.73
2023-09-23T10:01:13.423Z,1000.71
2023-09-23T10:02:13.388Z,1000.74
2023-09-23T10:03:13.465Z,1000.74
2023-09-23T10:04:13.308Z,1000.78
2023-09-23T10:05:13.344Z,1000.70
2023-09-23T10:06:13.325Z,1000.73
2023-09-23T10:07:13.274Z,1000.77
2023-09-23T10:08:13.282Z,1000.76
2023-09-23T10:09:13.235Z,1000.76
2023-09-23T10:10:13.232Z,1000.76
2023-09-23T10:11:13.237Z,1000.80
2023-09-23T10:12:13.193Z,1000.71
2023-09-23T10:13:13.231Z,1000.76
2023-09-23T10:14:13.194Z,1000.72
2023-09-23T10:15:13.176Z,1000.77
2023-09-23T10:16:13.229Z,1000.74
2023-09-23T10:17:13.204Z,1000.79
2023-09-23T10:18:13.240Z,1000.76
2023-09-23T10:19:13.152Z,1000.78
2023-09-23T10:20:13.150Z,1000.80
2023-09-23T10:21:13.080Z,1000.83
2023-09-23T10:22:13.062Z,1000.82
2023-09-23T10:23:13.104Z,1000.91
2023-09-23T10:24:13.054Z,1000.90
2023-09-23T10:25:13.086Z,1000.93
2023-09-23T10:26:13.080Z,1000.97
2023-09-23T10:27:13.026Z,1000.93
2023-09-23T10:28:12.978Z,1000.98
2023-09-23T10:29:13.029Z,1000.93
2023-09-23T10:30:12.952Z,1000.96
2023-09-23T10:31:12.995Z,1000.96
2023-09-23T10:32:12.960Z,1000.97
2023-09-23T10:33:12.984Z,1001.01
2023-09-23T10:34:12.907Z,1000.97
2023-09-23T10:35:12.922Z,1001.00
2023-09-23T10:36:12.873Z,1000.96
2023-09-23T10:37:12.854Z,1001.00
2023-09-23T10:38:12.879Z,1001.00
2023-09-23T10:39:12.834Z,1000.95
2023-09-23T10:40:12.866Z,1000.97
2023-09-23T10:41:12.849Z,1000.99
2023-09-23T10:42:12.887Z,1000.96
2023-09-23T10:43:12.785Z,1000.92
2023-09-23T10:44:15.507Z,1000.91
2023-09-23T10:45:12.794Z,1000.94
2023-09-23T10:46:12.808Z,1000.93
2023-09-23T10:47:12.815Z,1000.92
2023-09-23T10:48:12.779Z,1000.89
2023-09-23T10:49:12.779Z,1000.90
2023-09-23T10:50:12.769Z,1000.91
2023-09-23T10:51:12.668Z,1000.89
2023-09-23T10:52:12.665Z,1000.88
2023-09-23T10:53:12.708Z,1000.93
2023-09-23T10:54:12.621Z,1000.90
2023-09-23T10:55:12.622Z,1000.95
2023-09-23T10:56:12.640Z,1000.91
2023-09-23T10:57:12.613Z,1000.91
2023-09-23T10:58:12.583Z,1000.95
2023-09-23T10:59:12.584Z,1000.99
2023-09-23T11:00:12.549Z,1000.97
2023-09-23T11:01:12.538Z,1001.03
2023-09-23T11:02:12.690Z,1001.08
2023-09-23T11:03:12.782Z,1001.09
2023-09-23T11:04:12.608Z,1001.10
2023-09-23T11:05:12.662Z,1001.11
2023-09-23T11:06:12.491Z,1001.09
2023-09-23T11:07:12.464Z,1001.12
2023-09-23T11:08:12.487Z,1001.05
2023-09-23T11:09:12.447Z,1001.07
2023-09-23T11:10:12.412Z,1001.08
2023-09-23T11:11:12.451Z,1001.09
2023-09-23T11:12:12.379Z,1001.15
2023-09-23T11:13:12.368Z,1001.14
2023-09-23T11:14:12.414Z,1001.15
2023-09-23T11:15:12.361Z,1001.14
2023-09-23T11:16:12.364Z,1001.14
2023-09-23T11:17:12.361Z,1001.17
2023-09-23T11:18:12.319Z,1001.21
2023-09-23T11:19:12.317Z,1001.19
2023-09-23T11:20:12.385Z,1001.20
2023-09-23T11:21:12.281Z,1001.22
2023-09-23T11:22:12.244Z,1001.22
2023-09-23T11:23:12.314Z,1001.24
2023-09-23T11:24:12.216Z,1001.27
2023-09-23T11:25:12.283Z,1001.24
2023-09-23T11:26:12.239Z,1001.24
2023-09-23T11:27:12.248Z,1001.24
2023-09-23T11:28:12.287Z,1001.26
2023-09-23T11:29:12.208Z,1001.31
2023-09-23T11:30:12.160Z,1001.33
2023-09-23T11:31:12.133Z,1001.32
2023-09-23T11:32:12.248Z,1001.30
2023-09-23T11:33:12.132Z,1001.33
2023-09-23T11:34:12.115Z,1001.33
2023-09-23T11:35:12.152Z,1001.40
2023-09-23T11:36:12.052Z,1001.40
2023-09-23T11:37:12.070Z,1001.36
2023-09-23T11:38:12.113Z,1001.35
2023-09-23T11:39:12.036Z,1001.42
2023-09-23T11:40:12.018Z,1001.37
2023-09-23T11:41:12.084Z,1001.40
2023-09-23T11:42:11.983Z,1001.39
2023-09-23T11:43:11.973Z,1001.34
2023-09-23T11:44:12.001Z,1001.37
2023-09-23T11:45:12.019Z,1001.31
2023-09-23T11:46:11.985Z,1001.36
2023-09-23T11:47:11.962Z,1001.40
2023-09-23T11:48:12.048Z,1001.37
2023-09-23T11:49:11.905Z,1001.40
2023-09-23T11:50:11.879Z,1001.38
2023-09-23T11:51:11.857Z,1001.38
2023-09-23T11:52:11.857Z,1001.38
2023-09-23T11:53:11.876Z,1001.40
2023-09-23T11:54:13.244Z,1001.36
2023-09-23T11:55:11.802Z,1001.34
2023-09-23T11:56:11.861Z,1001.33
2023-09-23T11:57:11.848Z,1001.38
2023-09-23T11:58:11.790Z,1001.38
2023-09-23T11:59:11.968Z,1001.38
2023-09-23T12:00:11.744Z,1001.38
2023-09-23T12:01:11.741Z,1001.39
2023-09-23T12:02:11.808Z,1001.38
2023-09-23T12:03:11.756Z,1001.43
2023-09-23T12:04:11.727Z,1001.37
2023-09-23T12:05:11.819Z,1001.41
2023-09-23T12:06:11.703Z,1001.44
2023-09-23T12:07:11.667Z,1001.44
2023-09-23T12:08:11.660Z,1001.45
2023-09-23T12:09:11.626Z,1001.44
2023-09-23T12:10:11.595Z,1001.41
2023-09-23T12:11:11.624Z,1001.39
2023-09-23T12:12:11.629Z,1001.43
2023-09-23T12:13:11.556Z,1001.44
2023-09-23T12:14:11.691Z,1001.41
2023-09-23T12:15:11.541Z,1001.44
2023-09-23T12:16:11.551Z,1001.41
2023-09-23T12:17:11.580Z,1001.39
2023-09-23T12:18:11.595Z,1001.42
2023-09-23T12:19:11.480Z,1001.41
2023-09-23T12:20:11.546Z,1001.40